EW8973 Weather Reports


Display with metric or nautical units.
time (UTC)temp
F
wind
direction
speed
MPH
gust
MPH
rain 1hr
in
rain 24hr
in
rain mn
in
humidity
%
barometer
mb
20210301124535 0 0.0 0.0 0.00 0.00 0.00 1024.9
20210301124035 0 0.0 0.0 0.00 0.00 0.00 1024.9
20210301123515 0 0.0 0.0 0.00 0.00 0.00 1024.9
20210301123024 0 0.0 0.0 0.00 0.00 0.00 1024.9
20210301122629 0 0.0 0.0 0.00 0.00 0.00 1024.9
20210301122028 0 0.0 0.0 0.00 0.00 0.00 1024.8
20210301121543 0 0.0 0.0 0.00 0.00 0.00 1024.8
20210301121022 40 326 3.0 6.0 0.00 0.00 0.00 17 1024.6
20210301120532 40 326 3.0 6.0 0.00 0.00 0.00 17 1024.7
20210301115610 42 328 3.0 6.0 0.00 0.00 0.00 16 1024.8
20210301115118 42 337 3.0 6.0 0.00 0.00 0.00 16 1024.9
20210301114832 42 340 3.0 5.0 0.00 0.00 0.00 17 1024.8
20210301114103 42 335 3.0 4.0 0.00 0.00 0.00 17 1024.8
20210301113600 43 281 1.0 4.0 0.00 0.00 0.00 17 1024.7
20210301113232 43 324 2.0 4.0 0.00 0.00 0.00 16 1024.6
20210301112901 43 337 2.0 4.0 0.00 0.00 0.00 16 1024.5
20210301112231 43 352 1.0 4.0 0.00 0.00 0.00 16 1024.5
20210301111605 43 324 2.0 5.0 0.00 0.00 0.00 16 1024.4
20210301111108 43 349 1.0 5.0 0.00 0.00 0.00 16 1024.4
20210301110546 43 329 3.0 5.0 0.00 0.00 0.00 16 1024.3
20210301110128 43 342 3.0 5.0 0.00 0.00 0.00 16 1024.3
20210301105541 43 350 2.0 4.0 0.00 0.00 0.00 16 1024.3
20210301105246 43 330 1.0 4.0 0.00 0.00 0.00 17 1024.4
20210301104632 43 328 2.0 6.0 0.00 0.00 0.00 16 1024.3
20210301104036 43 323 3.0 6.0 0.00 0.00 0.00 16 1024.3
20210301103535 43 326 3.0 5.0 0.00 0.00 0.00 17 1024.2
20210301103128 43 326 2.0 6.0 0.00 0.00 0.00 18 1024.2
20210301102706 42 314 3.0 6.0 0.00 0.00 0.00 18 1024.3
20210301102031 42 328 2.0 5.0 0.00 0.00 0.00 21 1024.3
20210301101557 42 287 1.0 3.0 0.00 0.00 0.00 21 1024.3
20210301101050 42 264 1.0 2.0 0.00 0.00 0.00 21 1024.2
20210301100539 43 276 0.0 2.0 0.00 0.00 0.00 20 1024.2
20210301100109 43 11 0.0 3.0 0.00 0.00 0.00 19 1024.2
20210301095531 44 27 0.0 3.0 0.00 0.00 0.00 18 1024.1
20210301095049 43 18 1.0 4.0 0.00 0.00 0.00 18 1024.1
20210301094551 43 27 2.0 5.0 0.00 0.00 0.00 19 1024.1
20210301094023 42 13 3.0 5.0 0.00 0.00 0.00 19 1024.1
20210301093529 42 102 0.0 1.0 0.00 0.00 0.00 19 1024.1
20210301093044 43 102 0.0 1.0 0.00 0.00 0.00 19 1024.1
20210301092706 43 74 0.0 1.0 0.00 0.00 0.00 18 1024.1
20210301092022 44 74 0.0 3.0 0.00 0.00 0.00 17 1024.0
20210301091540 44 74 0.0 3.0 0.00 0.00 0.00 17 1023.9
20210301091023 44 71 2.0 3.0 0.00 0.00 0.00 17 1024.0
20210301090528 44 58 2.0 3.0 0.00 0.00 0.00 16 1024.0
20210301090039 44 38 1.0 2.0 0.00 0.00 0.00 16 1024.0
20210301085521 45 39 1.0 2.0 0.00 0.00 0.00 16 1024.0
20210301085029 45 351 0.0 0.0 0.00 0.00 0.00 15 1024.0
20210301084518 45 351 0.0 2.0 0.00 0.00 0.00 15 1024.1
20210301084030 46 351 0.0 4.0 0.00 0.00 0.00 14 1024.1
20210301083601 46 349 1.0 4.0 0.00 0.00 0.00 14 1024.0
20210301083154 46 345 2.0 4.0 0.00 0.00 0.00 14 1024.0
20210301082814 47 349 1.0 2.0 0.00 0.00 0.00 14 1024.1
20210301082109 47 340 0.0 1.0 0.00 0.00 0.00 12 1024.1
20210301081704 48 340 0.0 2.0 0.00 0.00 0.00 12 1023.9
20210301081105 48 347 0.0 4.0 0.00 0.00 0.00 12 1023.9
20210301080600 48 37 1.0 5.0 0.00 0.00 0.00 11 1023.9
20210301080153 48 34 2.0 6.0 0.00 0.00 0.00 11 1023.8
20210301075548 48 349 2.0 6.0 0.00 0.00 0.00 12 1023.8
20210301075054 49 39 3.0 7.0 0.00 0.00 0.00 11 1023.8
20210301074548 49 25 4.0 7.0 0.00 0.00 0.00 11 1023.8
20210301074043 48 20 4.0 6.0 0.00 0.00 0.00 12 1023.7
20210301073544 48 12 3.0 5.0 0.00 0.00 0.00 12 1023.7
20210301073118 49 15 2.0 6.0 0.00 0.00 0.00 12 1023.7
20210301072639 49 12 3.0 7.0 0.00 0.00 0.00 11 1023.7
20210301072041 49 19 3.0 8.0 0.00 0.00 0.00 11 1023.7
20210301071640 49 15 4.0 8.0 0.00 0.00 0.00 11 1023.6
20210301071035 48 9 3.0 6.0 0.00 0.00 0.00 12 1023.6
20210301070539 48 34 3.0 6.0 0.00 0.00 0.00 12 1023.6
20210301070141 48 27 3.0 6.0 0.00 0.00 0.00 13 1023.7
20210301065542 46 12 1.0 3.0 0.00 0.00 0.00 15 1023.6
20210301065032 46 21 1.0 3.0 0.00 0.00 0.00 16 1023.6
20210301064552 46 20 0.0 3.0 0.00 0.00 0.00 16 1023.6
20210301064031 46 32 2.0 3.0 0.00 0.00 0.00 16 1023.6
20210301063526 46 23 1.0 2.0 0.00 0.00 0.00 16 1023.6
20210301063030 46 9 0.0 0.0 0.00 0.00 0.00 16 1023.6
20210301062618 46 9 0.0 1.0 0.00 0.00 0.00 16 1023.6
20210301062035 46 9 0.0 1.0 0.00 0.00 0.00 16 1023.6
20210301061531 46 8 0.0 1.0 0.00 0.00 0.00 15 1023.6
20210301061027 46 8 0.0 0.0 0.00 0.00 0.00 16 1023.6
20210301060522 46 358 0.0 1.0 0.00 0.00 0.00 16 1023.5
20210301060103 47 328 0.0 2.0 0.00 0.00 0.00 15 1023.5
20210301055532 47 322 0.0 2.0 0.00 0.00 0.00 15 1023.4
20210301055024 47 347 0.0 3.0 0.00 0.00 0.00 16 1023.4
20210301054527 48 347 0.0 3.0 0.00 0.00 0.00 14 1023.4
20210301054023 48 356 1.0 2.0 0.00 0.00 0.00 14 1023.4
20210301053520 48 30 0.0 1.0 0.00 0.00 0.00 14 1023.4
20210301053029 48 30 0.0 1.0 0.00 0.00 0.00 13 1023.3
20210301052625 48 33 0.0 2.0 0.00 0.00 0.00 14 1023.3
20210301052022 48 32 0.0 2.0 0.00 0.00 0.00 13 1023.3
20210301051519 48 6 0.0 2.0 0.00 0.00 0.00 13 1023.3
20210301051108 49 23 1.0 2.0 0.00 0.00 0.00 13 1023.3
20210301050600 49 49 1.0 2.0 0.00 0.00 0.00 13 1023.2
20210301050117 49 25 1.0 2.0 0.00 0.00 0.00 12 1023.1
20210301045602 50 28 0.0 1.0 0.00 0.00 0.00 12 1023.2
20210301045348 50 28 0.0 2.0 0.00 0.00 0.00 11 1023.2
20210301044653 50 28 1.0 2.0 0.00 0.00 0.00 11 1023.2
20210301044058 51 41 0.0 2.0 0.00 0.00 0.00 11 1023.1
20210301043554 51 39 0.0 2.0 0.00 0.00 0.00 11 1023.0
20210301043210 51 42 1.0 2.0 0.00 0.00 0.00 10 1023.0
20210301042659 52 31 0.0 2.0 0.00 0.00 0.00 10 1023.0
20210301042054 52 347 0.0 3.0 0.00 0.00 0.00 10 1022.9
20210301041646 52 18 1.0 4.0 0.00 0.00 0.00 10 1022.8
20210301041042 52 43 2.0 4.0 0.00 0.00 0.00 10 1022.7
20210301040547 52 44 2.0 4.0 0.00 0.00 0.00 10 1022.7
20210301040139 53 25 2.0 4.0 0.00 0.00 0.00 9 1022.6
20210301035539 53 30 1.0 2.0 0.00 0.00 0.00 9 1022.6
20210301035346 53 11 0.0 1.0 0.00 0.00 0.00 9 1022.5
20210301034604 53 8 0.0 0.0 0.00 0.00 0.00 9 1022.5
20210301034035 54 8 0.0 0.0 0.00 0.00 0.00 9 1022.5
20210301033546 54 8 0.0 3.0 0.00 0.00 0.00 8 1022.3
20210301033046 54 8 0.0 4.0 0.00 0.00 0.00 8 1022.3
20210301032633 55 8 2.0 4.0 0.00 0.00 0.00 8 1022.3
20210301032033 55 24 1.0 4.0 0.00 0.00 0.00 8 1022.3
20210301031554 55 32 1.0 4.0 0.00 0.00 0.00 8 1022.2
20210301031027 55 51 1.0 4.0 0.00 0.00 0.00 8 1022.2
20210301030531 55 38 2.0 5.0 0.00 0.00 0.00 8 1022.1
20210301030050 56 54 1.0 6.0 0.00 0.00 0.00 8 1022.0
20210301025527 56 46 3.0 6.0 0.00 0.00 0.00 7 1021.9
20210301025040 56 34 3.0 6.0 0.00 0.00 0.00 8 1021.9
20210301024527 56 46 2.0 4.0 0.00 0.00 0.00 8 1021.8
20210301024025 56 39 2.0 5.0 0.00 0.00 0.00 7 1021.7
20210301023519 56 39 1.0 5.0 0.00 0.00 0.00 7 1021.7
20210301023057 57 30 0.0 3.0 0.00 0.00 0.00 7 1021.6
20210301022707 57 56 0.0 5.0 0.00 0.00 0.00 7 1021.5
20210301022022 57 51 0.0 5.0 0.00 0.00 0.00 7 1021.3
20210301021535 58 46 2.0 7.0 0.00 0.00 0.00 6 1021.2
20210301021025 58 42 3.0 7.0 0.00 0.00 0.00 6 1021.2
20210301020520 58 58 3.0 12.0 0.00 0.00 0.00 6 1021.1
20210301020038 59 25 4.0 12.0 0.00 0.00 0.00 6 1021.0
20210301015113 59 19 5.0 11.0 0.00 0.00 0.00 6 1020.9
20210301014741 59 27 4.0 11.0 0.00 0.00 0.00 5 1020.9
20210301014056 59 41 3.0 11.0 0.00 0.00 0.00 5 1020.8
20210301013555 59 43 6.0 12.0 0.00 0.00 0.00 5 1020.7
20210301013120 60 53 6.0 15.0 0.00 0.00 0.00 5 1020.6
20210301012710 60 21 8.0 15.0 0.00 0.00 0.00 5 1020.5
20210301012051 60 39 6.0 13.0 0.00 0.00 0.00 5 1020.5
20210301011614 60 34 8.0 13.0 0.00 0.00 0.00 5 1020.5
20210301011106 61 39 6.0 14.0 0.00 0.00 0.00 5 1020.4
20210301010613 61 52 7.0 15.0 0.00 0.00 0.00 5 1020.4
20210301010146 61 51 10.0 17.0 0.00 0.00 0.00 5 1020.3
20210301005555 61 48 11.0 17.0 0.00 0.00 0.00 5 1020.2
20210301005339 61 13 10.0 17.0 0.00 0.00 0.00 5 1020.1
20210301004601 62 33 7.0 15.0 0.00 0.00 0.00 5 1020.0
20210301004042 62 25 8.0 15.0 0.00 0.00 0.00 5 1019.9
20210301003536 62 52 8.0 15.0 0.00 0.00 0.00 5 1019.8
20210301003045 62 55 6.0 15.0 0.00 0.00 0.00 5 1019.8
20210301002708 62 31 10.0 15.0 0.00 0.00 0.00 5 1019.8
20210301002040 62 20 8.0 16.0 0.00 0.00 0.00 4 1019.7
20210301001640 62 25 8.0 16.0 0.00 0.00 0.00 4 1019.7
20210301001044 62 23 6.0 14.0 0.00 0.00 0.00 5 1019.7
20210301000531 62 37 8.0 17.0 0.00 0.00 0.00 4 1019.7
20210301000043 62 21 11.0 17.0 0.00 0.00 0.00 4 1019.6
20210228235535 62 36 7.0 13.0 0.00 0.00 0.00 4 1019.5
20210228235231 62 9 8.0 15.0 0.00 0.00 0.00 4 1019.5
20210228234554 62 27 7.0 17.0 0.00 0.00 0.00 4 1019.5
20210228234035 62 1 6.0 17.0 0.00 0.00 0.00 4 1019.4
20210228233531 62 15 7.0 18.0 0.00 0.00 0.00 5 1019.4
20210228233048 62 13 7.0 21.0 0.00 0.00 0.00 5 1019.5
20210228232647 62 22 11.0 0.0 0.00 0.00 0.00 4 1019.4
20210228232035 62 23 12.0 20.0 0.00 0.00 0.00 5 1019.4
20210228231600 62 47 10.0 18.0 0.00 0.00 0.00 5 1019.4
20210228231025 62 19 10.0 18.0 0.00 0.00 0.00 5 1019.4
20210228230529 62 15 7.0 15.0 0.00 0.00 0.00 5 1019.4
20210228230027 63 61 8.0 14.0 0.00 0.00 0.00 5 1019.3
20210228225518 62 56 6.0 18.0 0.00 0.00 0.00 5 1019.3
20210228225043 62 21 7.0 21.0 0.00 0.00 0.00 5 1019.4
20210228224531 62 23 11.0 21.0 0.00 0.00 0.00 5 1019.2
20210228224019 62 59 13.0 21.0 0.00 0.00 0.00 5 1019.3
20210228223613 62 44 12.0 19.0 0.00 0.00 0.00 5 1019.2
20210228223124 62 18 10.0 19.0 0.00 0.00 0.00 5 1019.2
20210228222634 62 36 11.0 19.0 0.00 0.00 0.00 5 1019.3
20210228222057 62 3 9.0 18.0 0.00 0.00 0.00 5 1019.2
20210228221706 62 351 10.0 22.0 0.00 0.00 0.00 6 1019.2
20210228221059 62 338 10.0 22.0 0.00 0.00 0.00 6 1019.1
20210228220557 61 40 6.0 16.0 0.00 0.00 0.00 6 1019.1
20210228220128 61 319 8.0 16.0 0.00 0.00 0.00 5 1019.1
20210228215548 61 320 10.0 19.0 0.00 0.00 0.00 6 1019.2
20210228215319 61 23 11.0 19.0 0.00 0.00 0.00 6 1019.2
20210228214650 61 334 6.0 19.0 0.00 0.00 0.00 6 1019.2
20210228214055 61 50 9.0 22.0 0.00 0.00 0.00 6 1019.2
20210228213543 61 53 14.0 22.0 0.00 0.00 0.00 6 1019.3
20210228213123 61 24 9.0 22.0 0.00 0.00 0.00 7 1019.2
20210228212634 61 43 12.0 22.0 0.00 0.00 0.00 7 1019.1
20210228212043 61 16 8.0 16.0 0.00 0.00 0.00 7 1019.1
20210228211621 60 16 8.0 20.0 0.00 0.00 0.00 7 1019.1
20210228211053 60 26 3.0 22.0 0.00 0.00 0.00 7 1019.1
20210228210538 61 349 14.0 22.0 0.00 0.00 0.00 7 1019.2
20210228210105 61 35 11.0 20.0 0.00 0.00 0.00 7 1019.2
20210228205532 61 51 9.0 19.0 0.00 0.00 0.00 8 1019.1
20210228205233 61 288 8.0 19.0 0.00 0.00 0.00 8 1019.1
20210228204103 61 17 10.0 23.0 0.00 0.00 0.00 7 1019.2
20210228203613 60 5 14.0 23.0 0.00 0.00 0.00 7 1019.2
20210228203131 61 20 10.0 18.0 0.00 0.00 0.00 7 1019.2
20210228202614 60 352 10.0 21.0 0.00 0.00 0.00 7 1019.4
20210228202105 61 15 10.0 21.0 0.00 0.00 0.00 7 1019.3
20210228201653 60 26 4.0 18.0 0.00 0.00 0.00 7 1019.3
20210228201052 60 6 10.0 18.0 0.00 0.00 0.00 7 1019.4
20210228200549 60 15 9.0 21.0 0.00 0.00 0.00 8 1019.4
20210228200121 60 11 11.0 23.0 0.00 0.00 0.00 8 1019.4
20210228195601 59 22 8.0 23.0 0.00 0.00 0.00 7 1019.4
20210228195049 60 58 11.0 22.0 0.00 0.00 0.00 7 1019.4
20210228194603 60 301 9.0 17.0 0.00 0.00 0.00 9 1019.6
20210228194040 59 31 7.0 18.0 0.00 0.00 0.00 10 1019.7
20210228193539 59 352 11.0 19.0 0.00 0.00 0.00 9 1019.6
20210228193118 59 348 5.0 21.0 0.00 0.00 0.00 9 1019.6
20210228192759 59 330 10.0 20.0 0.00 0.00 0.00 9 1019.8
20210228192034 58 15 8.0 22.0 0.00 0.00 0.00 9 1019.6
20210228191557 58 356 15.0 22.0 0.00 0.00 0.00 9 1019.6
20210228191035 58 17 11.0 23.0 0.00 0.00 0.00 9 1019.7
20210228190532 59 38 14.0 23.0 0.00 0.00 0.00 9 1019.7
20210228190122 58 25 4.0 21.0 0.00 0.00 0.00 10 1019.6
20210228185539 58 5 10.0 21.0 0.00 0.00 0.00 10 1019.8
20210228185029 58 340 13.0 22.0 0.00 0.00 0.00 8 1019.6
20210228184558 58 330 10.0 22.0 0.00 0.00 0.00 10 1019.6
20210228184030 58 1 13.0 23.0 0.00 0.00 0.00 9 1019.6
20210228183530 58 330 14.0 23.0 0.00 0.00 0.00 9 1019.7
20210228183125 58 346 7.0 17.0 0.00 0.00 0.00 10 1019.6
20210228182639 57 328 9.0 21.0 0.00 0.00 0.00 11 1019.6
20210228182030 57 328 12.0 21.0 0.00 0.00 0.00 10 1019.6
20210228181547 58 16 10.0 21.0 0.00 0.00 0.00 11 1019.5
20210228181040 57 15 7.0 21.0 0.00 0.00 0.00 12 1019.5
20210228180524 57 318 12.0 21.0 0.00 0.00 0.00 11 1019.5
20210228180042 57 329 9.0 21.0 0.00 0.00 0.00 12 1019.5
20210228175532 57 5 12.0 21.0 0.00 0.00 0.00 12 1019.5
20210228175056 56 12 11.0 18.0 0.00 0.00 0.00 12 1019.4
20210228174526 56 339 7.0 21.0 0.00 0.00 0.00 13 1019.3
20210228174021 56 23 11.0 21.0 0.00 0.00 0.00 12 1019.3
20210228173524 56 1 8.0 18.0 0.00 0.00 0.00 13 1019.3
20210228173033 55 348 8.0 18.0 0.00 0.00 0.00 12 1019.3
20210228172604 56 23 8.0 18.0 0.00 0.00 0.00 12 1019.3
20210228172022 55 329 5.0 16.0 0.00 0.00 0.00 12 1019.3
20210228171525 55 302 5.0 18.0 0.00 0.00 0.00 11 1019.2
20210228171022 55 321 9.0 18.0 0.00 0.00 0.00 11 1019.2
20210228170525 55 345 3.0 11.0 0.00 0.00 0.00 12 1019.1
20210228170024 54 274 6.0 13.0 0.00 0.00 0.00 12 1019.2
20210228165517 54 351 5.0 13.0 0.00 0.00 0.00 12 1019.2
20210228165030 54 327 3.0 13.0 0.00 0.00 0.00 13 1019.1
20210228164521 53 330 2.0 13.0 0.00 0.00 0.00 13 1019.1
20210228164030 53 264 5.0 13.0 0.00 0.00 0.00 13 1019.1
20210228163519 53 295 1.0 13.0 0.00 0.00 0.00 13 1019.2
20210228163051 53 355 2.0 13.0 0.00 0.00 0.00 14 1019.1
20210228162636 52 328 7.0 15.0 0.00 0.00 0.00 13 1019.1
20210228162022 52 351 7.0 15.0 0.00 0.00 0.00 14 1019.0
20210228161524 52 335 4.0 13.0 0.00 0.00 0.00 14 1019.1
20210228161029 52 326 5.0 13.0 0.00 0.00 0.00 14 1019.1
20210228160521 51 10 7.0 14.0 0.00 0.00 0.00 14 1019.0
20210228160023 51 334 5.0 14.0 0.00 0.00 0.00 15 1019.0
20210228155517 51 302 4.0 12.0 0.00 0.00 0.00 15 1018.9
20210228155021 50 323 5.0 11.0 0.00 0.00 0.00 15 1019.0
20210228154521 49 308 1.0 7.0 0.00 0.00 0.00 17 1019.0
20210228154106 49 333 1.0 8.0 0.00 0.00 0.00 17 1018.9
20210228153604 48 283 2.0 8.0 0.00 0.00 0.00 17 1018.9
20210228153142 48 359 2.0 8.0 0.00 0.00 0.00 17 1018.9
20210228152922 47 311 0.0 7.0 0.00 0.00 0.00 18 1018.8
20210228152059 47 27 3.0 7.0 0.00 0.00 0.00 16 1018.7
20210228151849 47 345 4.0 7.0 0.00 0.00 0.00 16 1018.6
20210228151102 47 306 1.0 5.0 0.00 0.00 0.00 16 1018.5
20210228150602 47 326 0.0 11.0 0.00 0.00 0.00 16 1018.4
20210228150116 46 336 5.0 11.0 0.00 0.00 0.00 15 1018.3
20210228145558 46 304 4.0 12.0 0.00 0.00 0.00 15 1018.1
20210228145118 46 319 7.0 12.0 0.00 0.00 0.00 15 1018.1
20210228144701 46 8 6.0 15.0 0.00 0.00 0.00 15 1018.0
20210228144052 46 338 7.0 15.0 0.00 0.00 0.00 15 1017.8
20210228143602 46 347 6.0 15.0 0.00 0.00 0.00 15 1017.8
20210228143151 0 0.0 0.0 0.00 0.00 0.00 1017.9
20210228142838 0 0.0 0.0 0.00 0.00 0.00 1017.9
20210228142111 0 0.0 0.0 0.00 0.00 0.00 1017.7
20210228141818 0 0.0 0.0 0.00 0.00 0.00 1017.4
20210228141045 0 0.0 0.0 0.00 0.00 0.00 1017.3
20210228140545 0 0.0 0.0 0.00 0.00 0.00 1017.2
20210228140057 0 0.0 0.0 0.00 0.00 0.00 1017.2
20210228135541 0 0.0 0.0 0.00 0.00 0.00 1017.1
20210228135040 0 0.0 0.0 0.00 0.00 0.00 1017.0
20210228134604 0 0.0 0.0 0.00 0.00 0.00 1016.9
20210228134038 0 0.0 0.0 0.00 0.00 0.00 1016.9
20210228133536 0 0.0 0.0 0.00 0.00 0.00 1016.9
20210228133125 0 0.0 0.0 0.00 0.00 0.00 1016.8
20210228132645 0 0.0 0.0 0.00 0.00 0.00 1016.8
20210228132032 0 0.0 0.0 0.00 0.00 0.00 1016.8
20210228131606 0 0.0 0.0 0.00 0.00 0.00 1016.8
20210228131029 0 0.0 0.0 0.00 0.00 0.00 1016.8
20210228130528 0 0.0 0.0 0.00 0.00 0.00 1016.8
20210228130056 0 0.0 0.0 0.00 0.00 0.00 1016.8
20210228125530 0 0.0 0.0 0.00 0.00 0.00 1016.7